Time;durP1;ratioP1;P1;durP2;ratioP2;P2;SDS_P1;SDS_P2;PMS_P1;PMS_P2;Temp;Humidity;BMP_temperature;BMP_pressure;BME280_temperature;BME280_humidity;BME280_pressure;Samples;Min_cycle;Max_cycle;Signal;HPM_P1;HPM_P2
2023/04/08 00:00:18;;;;;;;12.73;6.82;;;4.90;99.90;;;;;;5114497;27;20051;-82
2023/04/08 00:02:44;;;;;;;9.93;6.85;;;4.90;99.90;;;;;;5114639;27;20035;-85
2023/04/08 00:05:10;;;;;;;10.75;6.38;;;4.90;99.90;;;;;;5114435;27;20050;-81
2023/04/08 00:07:36;;;;;;;12.25;6.57;;;4.80;99.90;;;;;;5132985;27;20039;-83
2023/04/08 00:10:02;;;;;;;12.52;6.93;;;4.80;99.90;;;;;;5132857;27;20027;-81
2023/04/08 00:12:28;;;;;;;11.75;7.10;;;4.80;99.90;;;;;;5113983;27;20047;-83
2023/04/08 00:14:53;;;;;;;8.35;6.43;;;4.70;99.90;;;;;;5141373;27;20132;-81
2023/04/08 00:17:19;;;;;;;11.63;6.88;;;4.70;99.90;;;;;;5135009;27;20055;-83
2023/04/08 00:19:44;;;;;;;12.75;8.10;;;4.70;99.90;;;;;;5153219;27;20050;-79
2023/04/08 00:22:10;;;;;;;12.60;7.38;;;4.70;99.90;;;;;;5130933;27;20051;-82
2023/04/08 00:24:36;;;;;;;10.50;7.35;;;5.20;99.90;;;;;;5130730;27;20062;-84
2023/04/08 00:27:02;;;;;;;12.30;7.50;;;4.60;99.90;;;;;;5132204;27;20039;-82
2023/04/08 00:29:28;;;;;;;11.45;7.45;;;4.60;99.90;;;;;;5132929;27;20039;-86
2023/04/08 00:31:54;;;;;;;12.23;7.88;;;4.60;99.90;;;;;;5121952;27;20066;-88
2023/04/08 00:34:19;;;;;;;14.70;8.18;;;4.60;99.90;;;;;;5110600;28;20054;-90
2023/04/08 00:36:46;;;;;;;12.52;7.78;;;4.50;99.90;;;;;;5111994;28;20111;-82
2023/04/08 00:39:13;;;;;;;14.70;7.28;;;4.50;99.90;;;;;;5093772;28;20494;-75
2023/04/08 00:41:38;;;;;;;15.55;8.45;;;4.80;99.90;;;;;;5110182;28;20062;-77
2023/04/08 00:44:04;;;;;;;11.95;8.60;;;4.80;99.90;;;;;;5110340;27;20040;-74
2023/04/08 00:46:35;;;;;;;16.65;8.43;;;4.40;99.90;;;;;;5110672;28;20371;-75
2023/04/08 00:49:01;;;;;;;13.27;8.40;;;5.20;99.90;;;;;;5110895;28;20047;-75
2023/04/08 00:51:30;;;;;;;12.55;8.50;;;4.40;99.90;;;;;;5111723;28;20537;-74
2023/04/08 00:53:56;;;;;;;14.98;8.88;;;4.40;99.90;;;;;;5110597;28;20043;-75
2023/04/08 00:56:23;;;;;;;13.13;8.68;;;4.40;99.90;;;;;;5111734;28;20075;-74
2023/04/08 00:58:53;;;;;;;14.38;9.40;;;4.30;99.90;;;;;;5080651;22;20080;-73
2023/04/08 01:01:50;;;;;;;15.18;9.57;;;5.00;99.90;;;;;;5069069;28;20060;-74
2023/04/08 01:04:32;;;;;;;14.13;9.23;;;4.30;99.90;;;;;;5068550;28;20036;-75
2023/04/08 01:07:07;;;;;;;14.02;9.00;;;4.20;99.90;;;;;;5069191;28;20048;-75
2023/04/08 01:09:34;;;;;;;;;;;4.20;99.90;;;;;;5069568;28;20079;-74
2023/04/08 01:12:05;;;;;;;14.63;8.80;;;4.20;99.90;;;;;;5070228;28;20505;-73
2023/04/08 01:14:33;;;;;;;14.60;9.85;;;4.10;99.90;;;;;;5068604;28;20056;-74
2023/04/08 01:17:00;;;;;;;13.73;9.20;;;4.10;99.90;;;;;;5070330;28;20055;-73
2023/04/08 01:19:31;;;;;;;15.73;9.90;;;4.10;99.90;;;;;;5070278;28;20052;-75
2023/04/08 01:22:11;;;;;;;16.02;9.45;;;4.10;99.90;;;;;;5070361;28;20045;-74
2023/04/08 01:24:41;;;;;;;15.13;9.65;;;4.10;99.90;;;;;;5069110;28;20052;-74
2023/04/08 01:27:10;;;;;;;14.40;9.20;;;4.10;99.90;;;;;;5068912;28;20449;-74
2023/04/08 01:29:37;;;;;;;15.68;9.80;;;4.00;99.90;;;;;;5070072;28;20045;-77
2023/04/08 01:32:04;;;;;;;14.75;9.70;;;4.00;99.90;;;;;;5069921;28;20396;-73
2023/04/08 01:34:33;;;;;;;14.77;9.52;;;4.00;99.90;;;;;;5070355;28;20130;-73
2023/04/08 01:37:01;;;;;;;14.05;10.20;;;3.90;99.90;;;;;;5069113;28;20075;-74
2023/04/08 01:39:27;;;;;;;17.08;10.35;;;3.90;99.90;;;;;;5070203;28;20060;-74
2023/04/08 01:41:55;;;;;;;13.27;9.35;;;3.90;99.90;;;;;;5070099;28;20074;-74
2023/04/08 01:44:21;;;;;;;15.05;9.73;;;3.90;99.90;;;;;;5068688;28;20063;-75
2023/04/08 01:46:48;;;;;;;15.60;10.40;;;3.90;99.90;;;;;;5070182;28;20143;-73
2023/04/08 01:49:16;;;;;;;17.25;10.15;;;3.90;99.90;;;;;;5069065;28;20494;-75
2023/04/08 01:51:43;;;;;;;17.25;10.82;;;4.40;99.90;;;;;;5069874;28;20398;-74
2023/04/08 01:54:09;;;;;;;15.50;10.75;;;3.90;99.90;;;;;;5069926;28;20392;-75
2023/04/08 01:56:38;;;;;;;13.77;9.85;;;3.80;99.90;;;;;;5068310;28;20040;-73
2023/04/08 01:59:14;;;;;;;15.13;10.68;;;3.80;99.90;;;;;;5069086;28;20139;-74
2023/04/08 02:01:42;;;;;;;16.88;10.88;;;3.80;99.90;;;;;;5065556;28;20449;-74
2023/04/08 02:04:08;;;;;;;14.73;10.32;;;3.80;99.90;;;;;;5069154;28;20124;-73
2023/04/08 02:06:35;;;;;;;16.75;10.50;;;3.80;99.90;;;;;;5068149;28;20143;-73
2023/04/08 02:09:00;;;;;;;18.60;12.23;;;3.80;99.90;;;;;;5069331;28;20049;-86
2023/04/08 02:11:28;;;;;;;19.30;12.10;;;3.70;99.90;;;;;;5067809;28;20470;-74
2023/04/08 02:13:54;;;;;;;16.70;10.88;;;3.80;99.90;;;;;;5053048;28;20055;-74
2023/04/08 02:16:30;;;;;;;15.10;11.57;;;3.70;99.90;;;;;;5068652;28;20048;-78
2023/04/08 02:18:59;;;;;;;16.45;11.10;;;3.70;99.90;;;;;;5069841;28;20402;-76
2023/04/08 02:21:36;;;;;;;17.63;11.77;;;4.40;99.90;;;;;;5069885;28;20055;-75
2023/04/08 02:24:06;;;;;;;18.98;11.93;;;3.70;99.90;;;;;;5069133;28;20045;-77
2023/04/08 02:26:34;;;;;;;17.75;12.10;;;3.60;99.90;;;;;;5068669;28;20056;-74
2023/04/08 02:29:02;;;;;;;22.83;12.75;;;3.60;99.90;;;;;;5068917;28;20447;-74
2023/04/08 02:31:28;;;;;;;20.63;12.10;;;3.60;99.90;;;;;;5067863;28;20053;-74
2023/04/08 02:33:56;;;;;;;23.67;14.18;;;3.50;99.90;;;;;;5067830;28;20140;-74
2023/04/08 02:36:22;;;;;;;18.95;12.43;;;3.60;99.90;;;;;;5067508;28;20566;-73
2023/04/08 02:38:48;;;;;;;18.83;12.60;;;3.50;99.90;;;;;;5067508;28;20041;-73
2023/04/08 02:41:15;;;;;;;21.52;13.40;;;3.50;99.90;;;;;;5067833;28;20060;-78
2023/04/08 02:43:41;;;;;;;22.33;13.18;;;3.60;99.90;;;;;;5050828;28;20048;-73
2023/04/08 02:46:09;;;;;;;20.27;13.98;;;4.30;99.90;;;;;;5069073;28;20220;-74
2023/04/08 02:48:35;;;;;;;20.90;14.18;;;3.50;99.90;;;;;;5068790;28;20052;-74
2023/04/08 02:51:01;;;;;;;18.25;12.48;;;3.50;99.90;;;;;;5069143;28;20045;-73
2023/04/08 02:53:26;;;;;;;23.35;14.23;;;3.50;99.90;;;;;;5067185;28;20098;-73
2023/04/08 02:55:52;;;;;;;21.10;13.65;;;3.50;99.90;;;;;;5067330;28;20129;-72
2023/04/08 02:58:18;;;;;;;21.30;13.75;;;3.40;99.90;;;;;;5068577;28;20056;-73
2023/04/08 03:00:43;;;;;;;20.17;14.18;;;3.50;99.90;;;;;;5067208;28;20049;-72
2023/04/08 03:03:09;;;;;;;25.13;14.55;;;3.90;99.90;;;;;;5067413;28;20076;-74
2023/04/08 03:05:35;;;;;;;21.98;13.77;;;3.60;99.90;;;;;;5050291;28;20066;-74
2023/04/08 03:08:01;;;;;;;21.88;13.82;;;3.40;99.90;;;;;;5068343;28;20432;-74
2023/04/08 03:10:26;;;;;;;22.77;15.02;;;3.40;99.90;;;;;;5068259;28;20048;-74
2023/04/08 03:12:52;;;;;;;22.67;14.45;;;3.40;99.90;;;;;;5067377;28;20430;-73
2023/04/08 03:15:18;;;;;;;22.35;14.02;;;3.40;99.90;;;;;;5068931;28;20552;-73
2023/04/08 03:17:43;;;;;;;22.55;15.23;;;3.40;99.90;;;;;;5067468;28;20379;-74
2023/04/08 03:20:10;;;;;;;23.17;15.10;;;3.40;99.90;;;;;;5067220;28;20056;-75
2023/04/08 03:22:35;;;;;;;22.40;14.43;;;3.30;99.90;;;;;;5069175;28;20048;-73
2023/04/08 03:25:01;;;;;;;22.05;14.27;;;3.40;99.90;;;;;;5068287;28;20040;-74
2023/04/08 03:27:27;;;;;;;24.02;14.98;;;3.30;99.90;;;;;;5069503;28;20040;-74
2023/04/08 03:29:53;;;;;;;22.83;14.65;;;3.40;99.90;;;;;;5070537;28;20044;-75
2023/04/08 03:32:18;;;;;;;22.95;15.50;;;3.30;99.90;;;;;;5073356;28;20040;-74
2023/04/08 03:34:44;;;;;;;23.05;15.63;;;3.30;99.90;;;;;;5073837;28;20047;-74
2023/04/08 03:37:10;;;;;;;25.42;16.08;;;3.30;99.90;;;;;;5054714;28;20048;-75
2023/04/08 03:39:36;;;;;;;24.83;15.32;;;3.30;99.90;;;;;;5072243;28;20127;-75
2023/04/08 03:42:02;;;;;;;21.17;15.18;;;3.30;99.90;;;;;;5063677;28;20056;-85
2023/04/08 03:44:28;;;;;;;22.35;15.68;;;3.30;99.90;;;;;;5067291;28;20047;-76
2023/04/08 03:46:54;;;;;;;23.40;15.38;;;3.60;99.90;;;;;;5083992;28;20052;-85
2023/04/08 03:49:19;;;;;;;23.40;15.68;;;3.30;99.90;;;;;;5076311;28;20048;-75
2023/04/08 03:51:45;;;;;;;26.98;16.48;;;3.30;99.90;;;;;;5073868;28;20118;-76
2023/04/08 03:54:11;;;;;;;23.52;15.45;;;3.30;99.90;;;;;;5071675;28;20407;-77
2023/04/08 03:56:36;;;;;;;23.55;15.82;;;3.20;99.90;;;;;;5071511;28;20098;-76
2023/04/08 03:59:02;;;;;;;24.45;16.52;;;3.20;99.90;;;;;;5052561;28;20190;-77
2023/04/08 04:01:29;;;;;;;23.77;16.38;;;3.30;99.90;;;;;;5071489;28;20060;-74
2023/04/08 04:03:55;;;;;;;26.95;16.80;;;3.20;99.90;;;;;;5070183;28;20132;-74
2023/04/08 04:06:20;;;;;;;29.08;17.77;;;3.20;99.90;;;;;;5070306;28;20135;-74
2023/04/08 04:08:46;;;;;;;22.92;16.60;;;3.20;99.90;;;;;;5071477;28;20419;-76
2023/04/08 04:11:12;;;;;;;27.02;18.17;;;3.20;99.90;;;;;;5071234;28;20036;-74
2023/04/08 04:13:37;;;;;;;24.73;17.40;;;3.20;99.90;;;;;;5070620;28;20531;-73
2023/04/08 04:16:03;;;;;;;27.25;17.33;;;3.20;99.90;;;;;;5071044;28;20068;-75
2023/04/08 04:18:29;;;;;;;25.48;16.88;;;3.10;99.90;;;;;;5069944;28;20053;-73
2023/04/08 04:20:55;;;;;;;24.58;16.48;;;3.10;99.90;;;;;;5071368;28;20052;-74
2023/04/08 04:23:23;;;;;;;27.92;17.70;;;3.10;99.90;;;;;;5071266;28;20068;-74
2023/04/08 04:25:49;;;;;;;23.85;16.73;;;3.10;99.90;;;;;;5070193;28;20060;-75
2023/04/08 04:28:14;;;;;;;26.33;16.58;;;3.10;99.90;;;;;;5069833;28;20398;-73
2023/04/08 04:30:40;;;;;;;32.47;17.42;;;3.00;99.90;;;;;;5071022;28;20048;-74
2023/04/08 04:33:06;;;;;;;27.48;17.48;;;3.00;99.90;;;;;;5069528;28;20060;-74
2023/04/08 04:35:32;;;;;;;28.88;17.10;;;3.00;99.90;;;;;;5070098;28;20052;-73
2023/04/08 04:37:58;;;;;;;26.98;17.08;;;3.00;99.90;;;;;;5069778;28;20090;-73
2023/04/08 04:40:24;;;;;;;23.38;15.80;;;3.00;99.90;;;;;;5071070;28;20498;-74
2023/04/08 04:42:49;;;;;;;28.13;16.90;;;2.90;99.90;;;;;;5071245;28;20094;-75
2023/04/08 04:45:15;;;;;;;23.42;16.20;;;2.80;99.90;;;;;;5070991;28;20040;-75
2023/04/08 04:47:41;;;;;;;26.25;16.23;;;2.90;99.90;;;;;;5070919;28;20056;-74
2023/04/08 04:50:07;;;;;;;31.70;18.13;;;2.80;99.90;;;;;;5069509;28;20040;-74
2023/04/08 04:52:35;;;;;;;25.55;17.20;;;2.80;99.90;;;;;;5052863;28;20048;-74
2023/04/08 04:55:00;;;;;;;28.17;17.42;;;2.80;99.90;;;;;;5070857;28;20052;-74
2023/04/08 04:57:26;;;;;;;25.95;17.27;;;2.80;99.90;;;;;;5070651;28;20056;-75
2023/04/08 04:59:52;;;;;;;26.52;18.00;;;2.70;99.90;;;;;;5068531;28;20415;-74
2023/04/08 05:02:17;;;;;;;26.60;17.30;;;2.70;99.90;;;;;;5071019;28;20048;-73
2023/04/08 05:04:43;;;;;;;30.20;19.15;;;2.70;99.90;;;;;;5071074;28;20449;-74
2023/04/08 05:07:09;;;;;;;29.48;19.00;;;2.70;99.90;;;;;;5070945;28;20052;-74
2023/04/08 05:09:34;;;;;;;32.83;20.30;;;2.70;99.90;;;;;;5052011;28;20064;-79
2023/04/08 05:12:00;;;;;;;30.30;20.70;;;2.80;99.90;;;;;;5070425;28;20129;-74
2023/04/08 05:14:29;;;;;;;30.02;19.13;;;2.80;99.90;;;;;;5068518;28;20186;-74
2023/04/08 05:16:55;;;;;;;28.90;19.30;;;2.80;99.90;;;;;;5070312;28;20049;-74
2023/04/08 05:19:20;;;;;;;29.27;19.85;;;2.80;99.90;;;;;;5068090;28;20513;-73
2023/04/08 05:21:46;;;;;;;30.00;20.33;;;2.70;99.90;;;;;;5052041;28;20068;-75
2023/04/08 05:24:12;;;;;;;33.83;21.65;;;3.80;99.90;;;;;;5070089;28;20051;-74
2023/04/08 05:26:37;;;;;;;28.52;18.90;;;2.80;99.90;;;;;;5070126;28;20049;-74
2023/04/08 05:29:03;;;;;;;28.27;18.08;;;2.70;99.90;;;;;;5069929;28;20031;-74
2023/04/08 05:31:29;;;;;;;29.23;17.85;;;2.70;99.90;;;;;;5067997;28;20502;-73
2023/04/08 05:33:55;;;;;;;28.52;18.20;;;2.70;99.90;;;;;;5069838;28;20075;-73
2023/04/08 05:36:20;;;;;;;28.15;18.33;;;2.70;99.90;;;;;;5068808;28;20144;-76
2023/04/08 05:38:46;;;;;;;23.58;16.77;;;2.60;99.90;;;;;;5069551;28;20076;-75
2023/04/08 05:41:12;;;;;;;32.95;16.90;;;2.70;99.90;;;;;;5069672;28;20131;-74
2023/04/08 05:43:37;;;;;;;26.25;17.45;;;2.60;99.90;;;;;;5068460;28;20052;-73
2023/04/08 05:46:07;;;;;;;25.30;17.73;;;2.60;99.90;;;;;;5069324;28;20148;-73
2023/04/08 05:48:32;;;;;;;24.27;16.90;;;2.60;99.90;;;;;;5067823;28;20098;-77
2023/04/08 05:50:58;;;;;;;25.27;17.48;;;2.60;99.90;;;;;;5068125;28;20044;-75
2023/04/08 05:53:24;;;;;;;26.15;18.17;;;2.60;99.90;;;;;;5069519;28;20135;-74
2023/04/08 05:55:50;;;;;;;27.40;17.80;;;2.60;99.90;;;;;;5051557;28;20123;-73
2023/04/08 05:58:16;;;;;;;24.98;16.88;;;2.60;99.90;;;;;;5051599;28;20125;-78
2023/04/08 06:00:41;;;;;;;27.00;17.50;;;2.60;99.90;;;;;;5051181;28;20080;-75
2023/04/08 06:03:07;;;;;;;29.02;17.92;;;2.70;99.90;;;;;;5068597;28;20098;-84
2023/04/08 06:05:33;;;;;;;29.90;19.50;;;2.70;99.90;;;;;;5070176;28;20131;-85
2023/04/08 06:07:59;;;;;;;28.40;19.40;;;2.70;99.90;;;;;;5069944;28;20071;-88
2023/04/08 06:10:25;;;;;;;30.13;19.88;;;2.80;99.90;;;;;;5069646;28;20037;-80
2023/04/08 06:12:50;;;;;;;32.03;19.15;;;2.90;99.90;;;;;;5069013;28;20059;-81
2023/04/08 06:15:16;;;;;;;30.25;20.00;;;2.90;99.90;;;;;;5069859;28;20128;-78
2023/04/08 06:17:42;;;;;;;31.70;20.27;;;3.00;99.90;;;;;;5068735;28;20051;-88
2023/04/08 06:20:10;;;;;;;32.05;20.38;;;3.10;99.90;;;;;;5069755;28;20398;-85
2023/04/08 06:22:36;;;;;;;38.40;23.48;;;3.20;99.90;;;;;;5069905;28;20143;-84
2023/04/08 06:25:02;;;;;;;34.58;21.73;;;3.30;99.90;;;;;;5067901;28;20088;-84
2023/04/08 06:27:28;;;;;;;37.05;23.00;;;3.40;99.90;;;;;;5069406;28;20072;-83
2023/04/08 06:29:54;;;;;;;35.38;22.30;;;3.50;99.90;;;;;;5067979;28;20044;-89
2023/04/08 06:32:20;;;;;;;38.25;23.33;;;3.60;99.90;;;;;;5068072;28;20050;-83
2023/04/08 06:34:46;;;;;;;38.42;22.73;;;3.70;99.90;;;;;;5069031;28;20048;-85
2023/04/08 06:37:12;;;;;;;37.30;23.27;;;3.80;99.90;;;;;;5068055;28;20067;-85
2023/04/08 06:39:38;;;;;;;38.55;24.73;;;4.10;99.90;;;;;;5067513;28;20045;-86
2023/04/08 06:42:05;;;;;;;37.97;24.63;;;4.10;99.90;;;;;;5069620;28;20045;-87
2023/04/08 06:44:30;;;;;;;44.35;26.25;;;4.30;99.90;;;;;;5068091;28;20123;-87
2023/04/08 06:46:56;;;;;;;41.28;25.60;;;4.80;99.90;;;;;;5069066;28;20136;-75
2023/04/08 06:49:22;;;;;;;42.83;26.08;;;4.60;99.90;;;;;;5069161;28;20402;-76
2023/04/08 06:51:48;;;;;;;41.80;24.77;;;4.70;99.90;;;;;;5067736;28;20048;-74
2023/04/08 06:54:13;;;;;;;40.10;24.55;;;4.80;99.90;;;;;;5068980;28;20044;-74
2023/04/08 06:56:39;;;;;;;34.38;22.70;;;5.00;99.90;;;;;;5067764;28;20072;-74
2023/04/08 06:59:05;;;;;;;37.15;23.77;;;5.00;99.90;;;;;;5067831;28;20135;-73
2023/04/08 07:01:30;;;;;;;39.08;24.48;;;5.10;99.90;;;;;;5068843;28;20237;-74
2023/04/08 07:03:57;;;;;;;36.67;24.05;;;5.20;99.90;;;;;;5071464;28;20439;-74
2023/04/08 07:06:22;;;;;;;36.10;23.00;;;5.30;99.90;;;;;;5072652;28;20181;-74
2023/04/08 07:08:48;;;;;;;34.38;22.98;;;6.00;99.90;;;;;;5072453;28;20123;-76
2023/04/08 07:11:14;;;;;;;35.28;23.98;;;5.50;99.90;;;;;;5072743;28;20051;-74
2023/04/08 07:13:40;;;;;;;39.95;24.00;;;5.60;99.90;;;;;;5072700;28;20395;-72
2023/04/08 07:16:06;;;;;;;35.78;22.10;;;5.70;99.90;;;;;;5070580;28;20060;-74
2023/04/08 07:18:31;;;;;;;35.17;22.92;;;5.80;99.90;;;;;;5072642;28;20044;-74
2023/04/08 07:20:59;;;;;;;31.95;21.77;;;5.90;99.90;;;;;;5070852;28;20139;-74
2023/04/08 07:23:25;;;;;;;32.67;20.30;;;6.10;99.90;;;;;;5072721;28;20055;-75
2023/04/08 07:25:51;;;;;;;28.73;17.92;;;6.20;99.90;;;;;;5071779;28;20036;-75
2023/04/08 07:28:17;;;;;;;26.00;18.77;;;6.40;99.90;;;;;;5072806;28;20036;-77
2023/04/08 07:30:42;;;;;;;29.17;18.20;;;7.00;99.90;;;;;;5073422;28;20048;-80
2023/04/08 07:33:08;;;;;;;26.60;17.58;;;6.50;99.90;;;;;;5071447;28;20059;-75
2023/04/08 07:35:34;;;;;;;26.60;17.58;;;6.50;99.90;;;;;;5071910;28;20041;-74
2023/04/08 07:37:59;;;;;;;24.10;17.25;;;6.60;99.90;;;;;;5072982;28;20139;-83
2023/04/08 07:40:25;;;;;;;25.20;17.05;;;6.60;99.90;;;;;;5072478;28;20438;-82
2023/04/08 07:42:51;;;;;;;22.27;16.25;;;7.10;99.90;;;;;;5072613;28;20082;-75
2023/04/08 07:45:16;;;;;;;24.50;16.85;;;7.40;99.90;;;;;;5072919;28;20047;-75
2023/04/08 07:47:43;;;;;;;24.83;17.02;;;6.80;99.90;;;;;;5072427;28;20471;-77
2023/04/08 07:50:09;;;;;;;23.25;17.27;;;6.80;99.90;;;;;;5071380;28;20131;-79
2023/04/08 07:52:35;;;;;;;26.85;19.77;;;6.80;99.90;;;;;;5071084;28;20120;-79
2023/04/08 07:55:00;;;;;;;25.33;18.33;;;6.90;99.90;;;;;;5072025;28;20475;-81
2023/04/08 07:57:26;;;;;;;25.73;17.73;;;7.10;99.90;;;;;;5072308;28;20193;-84
2023/04/08 07:59:52;;;;;;;22.17;15.98;;;7.20;99.90;;;;;;5070805;28;20125;-81
2023/04/08 08:02:18;;;;;;;23.55;15.68;;;7.30;99.90;;;;;;5071983;28;20048;-79
2023/04/08 08:04:43;;;;;;;22.98;16.38;;;7.30;99.90;;;;;;5072759;28;20097;-79
2023/04/08 08:07:09;;;;;;;21.20;15.23;;;7.50;99.90;;;;;;5074214;28;20525;-78
2023/04/08 08:09:34;;;;;;;23.10;15.82;;;7.50;99.90;;;;;;5071450;28;20056;-76
2023/04/08 08:12:00;;;;;;;21.92;14.88;;;7.60;99.90;;;;;;5071695;28;20052;-78
2023/04/08 08:14:26;;;;;;;20.25;15.05;;;7.70;99.90;;;;;;5070506;28;20044;-84
2023/04/08 08:16:55;;;;;;;24.77;15.20;;;7.70;99.90;;;;;;5070423;28;20051;-80
2023/04/08 08:19:21;;;;;;;18.63;13.90;;;7.80;99.90;;;;;;5071914;28;20055;-83
2023/04/08 08:21:47;;;;;;;20.38;14.80;;;7.80;99.90;;;;;;5070653;28;20036;-82
2023/04/08 08:24:12;;;;;;;20.40;14.30;;;7.90;99.90;;;;;;5071529;28;20038;-76
2023/04/08 08:26:39;;;;;;;19.27;13.15;;;8.00;99.90;;;;;;5057905;28;20048;-77
2023/04/08 08:29:07;;;;;;;20.23;13.65;;;8.40;99.90;;;;;;5071651;28;20055;-83
2023/04/08 08:31:34;;;;;;;19.45;13.80;;;8.50;99.90;;;;;;5061663;28;20151;-79
2023/04/08 08:34:00;;;;;;;19.17;14.00;;;8.40;99.90;;;;;;5050355;28;20076;-74
2023/04/08 08:36:28;;;;;;;19.08;13.85;;;8.50;99.90;;;;;;5067414;28;20118;-82
2023/04/08 08:38:54;;;;;;;18.58;12.82;;;8.60;99.90;;;;;;5050158;28;20052;-74
2023/04/08 08:41:20;;;;;;;15.73;12.40;;;8.90;99.90;;;;;;5051987;28;20041;-79
2023/04/08 08:43:47;;;;;;;18.05;13.20;;;8.70;99.90;;;;;;5051634;28;20041;-77
2023/04/08 08:46:16;;;;;;;20.05;12.65;;;8.60;99.90;;;;;;5051177;28;20128;-85
2023/04/08 08:48:42;;;;;;;17.60;12.68;;;8.70;99.90;;;;;;5061052;28;20491;-80
2023/04/08 08:51:11;;;;;;;16.98;12.43;;;9.20;99.90;;;;;;5050928;28;20045;-81
2023/04/08 08:53:37;;;;;;;20.73;14.65;;;8.80;99.90;;;;;;5066424;28;20053;-75
2023/04/08 08:56:05;;;;;;;19.75;14.55;;;9.00;99.90;;;;;;5069980;28;20582;-74
2023/04/08 08:58:31;;;;;;;20.75;13.95;;;8.90;99.90;;;;;;5061473;28;20586;-73
2023/04/08 09:00:56;;;;;;;20.23;14.00;;;9.00;99.90;;;;;;5050599;28;20052;-74
2023/04/08 09:03:28;;;;;;;19.63;14.07;;;9.10;99.90;;;;;;5060779;28;20541;-74
2023/04/08 09:05:59;;;;;;;20.55;14.60;;;9.10;99.90;;;;;;5069549;28;20366;-74
2023/04/08 09:08:31;;;;;;;19.73;13.93;;;9.10;99.90;;;;;;5069574;28;20604;-73
2023/04/08 09:11:18;;;;;;;18.60;13.60;;;9.20;99.90;;;;;;5070583;28;20099;-74
2023/04/08 09:13:45;;;;;;;18.02;13.30;;;9.20;99.90;;;;;;5070512;28;20056;-73
2023/04/08 09:16:18;;;;;;;17.77;13.38;;;9.30;99.90;;;;;;5070827;28;20462;-74
2023/04/08 09:18:46;;;;;;;19.52;13.82;;;9.30;99.90;;;;;;5070673;28;20123;-75
2023/04/08 09:21:12;;;;;;;20.25;15.20;;;9.30;99.90;;;;;;5066054;28;20133;-72
2023/04/08 09:23:48;;;;;;;23.27;15.40;;;9.20;99.90;;;;;;5061715;28;20068;-74
2023/04/08 09:26:18;;;;;;;18.33;13.77;;;9.20;99.90;;;;;;5048033;28;20071;-74
2023/04/08 09:28:57;;;;;;;18.10;13.00;;;9.30;99.90;;;;;;5066493;28;20083;-73
2023/04/08 09:31:27;;;;;;;17.95;12.43;;;9.30;99.90;;;;;;5070608;28;20044;-73
2023/04/08 09:33:55;;;;;;;17.33;13.18;;;9.30;99.90;;;;;;5070467;28;20052;-73
2023/04/08 09:36:21;;;;;;;18.27;13.23;;;9.20;99.90;;;;;;5070274;28;20056;-72
2023/04/08 09:38:47;;;;;;;17.85;12.95;;;9.40;99.90;;;;;;5070389;28;20047;-74
2023/04/08 09:41:15;;;;;;;17.25;12.75;;;9.10;99.90;;;;;;5052024;28;20044;-74
2023/04/08 09:43:49;;;;;;;18.70;12.18;;;9.10;99.90;;;;;;5070047;28;20044;-75
2023/04/08 09:46:17;;;;;;;17.50;11.90;;;9.10;99.90;;;;;;5069006;28;20094;-73
2023/04/08 09:48:52;;;;;;;15.20;11.10;;;9.20;99.90;;;;;;5068484;28;20080;-73
2023/04/08 09:51:18;;;;;;;21.65;11.77;;;9.20;99.90;;;;;;5070236;28;20456;-73
2023/04/08 09:53:47;;;;;;;33.15;12.35;;;9.10;99.90;;;;;;5070329;28;20047;-74
2023/04/08 09:56:15;;;;;;;20.80;11.98;;;9.20;99.90;;;;;;5069554;28;20415;-73
2023/04/08 09:58:58;;;;;;;17.02;11.27;;;9.10;99.90;;;;;;5070612;28;20118;-78
2023/04/08 10:01:52;;;;;;;18.08;11.50;;;9.30;99.90;;;;;;5070264;28;20231;-73
2023/04/08 10:04:20;;;;;;;25.10;12.50;;;9.20;99.90;;;;;;4971613;28;20146;-74
2023/04/08 10:06:53;;;;;;;19.50;12.05;;;9.10;99.90;;;;;;4987845;28;20097;-77
2023/04/08 10:09:21;;;;;;;17.42;11.40;;;9.20;99.90;;;;;;4987748;28;20069;-82
2023/04/08 10:11:47;;;;;;;19.55;12.05;;;9.20;99.90;;;;;;4987843;28;20061;-76
2023/04/08 10:14:13;;;;;;;17.85;10.88;;;9.20;99.90;;;;;;4987720;28;20050;-73
2023/04/08 10:16:38;;;;;;;14.55;10.65;;;9.20;99.90;;;;;;4971773;28;20089;-77
2023/04/08 10:19:42;;;;;;;20.33;10.55;;;9.30;99.90;;;;;;4984241;28;20426;-80
2023/04/08 10:22:47;;;;;;;16.38;10.38;;;9.30;99.90;;;;;;4987762;28;20137;-76
2023/04/08 10:25:15;;;;;;;15.98;9.85;;;9.50;99.90;;;;;;4948960;29;20051;-78
2023/04/08 10:27:42;;;;;;;14.43;9.63;;;9.30;99.90;;;;;;4948866;29;20058;-73
2023/04/08 10:30:26;;;;;;;12.50;9.60;;;9.50;99.90;;;;;;4917516;29;20518;-77
2023/04/08 10:32:55;;;;;;;13.75;9.50;;;9.30;99.90;;;;;;4949393;29;20801;-81
2023/04/08 10:35:31;;;;;;;14.90;9.80;;;9.40;99.90;;;;;;4949462;28;20063;-82
2023/04/08 10:37:58;;;;;;;15.43;9.93;;;9.40;99.90;;;;;;4948539;29;20078;-79
2023/04/08 10:40:24;;;;;;;15.68;10.65;;;9.40;99.90;;;;;;4959172;28;20576;-74
2023/04/08 10:42:56;;;;;;;12.98;9.98;;;9.40;99.90;;;;;;4973462;28;20093;-74
2023/04/08 10:45:22;;;;;;;16.35;10.95;;;9.40;99.90;;;;;;4972671;28;20117;-84
2023/04/08 10:47:48;;;;;;;18.02;10.50;;;9.40;99.90;;;;;;4956414;28;20051;-74
2023/04/08 10:50:22;;;;;;;17.92;11.98;;;9.40;99.90;;;;;;4972365;28;20067;-73
2023/04/08 10:52:52;;;;;;;16.40;11.40;;;9.60;99.90;;;;;;4960345;28;20086;-73
2023/04/08 10:55:27;;;;;;;18.95;11.80;;;9.40;99.90;;;;;;5010668;28;20170;-74
2023/04/08 10:57:53;;;;;;;15.93;11.15;;;9.60;99.90;;;;;;5073838;28;20056;-79
2023/04/08 11:00:37;;;;;;;19.42;11.77;;;9.70;99.90;;;;;;5073245;28;20044;-77
2023/04/08 11:03:04;;;;;;;16.60;11.02;;;9.50;99.90;;;;;;5073724;28;20139;-79
2023/04/08 11:05:31;;;;;;;12.82;9.32;;;9.50;99.90;;;;;;5073041;28;20352;-75
2023/04/08 11:07:58;;;;;;;16.65;10.30;;;9.60;99.90;;;;;;5073249;28;20036;-75
2023/04/08 11:10:24;;;;;;;14.05;9.48;;;9.80;99.90;;;;;;5073343;28;20048;-76
2023/04/08 11:12:50;;;;;;;15.77;10.15;;;10.00;99.90;;;;;;5067070;28;20049;-81
2023/04/08 11:15:17;;;;;;;14.90;10.35;;;9.80;99.90;;;;;;5064464;28;20392;-81
2023/04/08 11:17:43;;;;;;;14.48;10.23;;;9.90;99.90;;;;;;5052972;28;20052;-80
2023/04/08 11:20:09;;;;;;;17.70;10.68;;;9.90;99.90;;;;;;5052601;28;20582;-84
2023/04/08 11:22:35;;;;;;;17.00;11.05;;;9.90;99.90;;;;;;5054644;28;20126;-85
2023/04/08 11:25:01;;;;;;;19.80;11.95;;;10.00;99.90;;;;;;5073129;28;20117;-85
2023/04/08 11:27:27;;;;;;;17.67;11.88;;;10.00;99.90;;;;;;5071690;28;20048;-85
2023/04/08 11:29:55;;;;;;;18.35;12.60;;;10.30;99.90;;;;;;5073164;28;20047;-88
2023/04/08 11:32:22;;;;;;;26.73;13.50;;;10.00;99.90;;;;;;5073340;28;20413;-85
2023/04/08 11:34:48;;;;;;;20.23;11.98;;;10.00;99.90;;;;;;5072278;28;20077;-86
2023/04/08 11:37:14;;;;;;;18.45;11.85;;;10.10;99.90;;;;;;5072765;28;20043;-80
2023/04/08 11:39:43;;;;;;;17.45;11.98;;;10.10;99.90;;;;;;5072925;28;20045;-86
2023/04/08 11:42:28;;;;;;;19.38;12.23;;;10.20;99.90;;;;;;5072743;28;20045;-87
2023/04/08 11:44:54;;;;;;;18.75;11.32;;;10.10;99.90;;;;;;5071686;28;20071;-79
2023/04/08 11:47:20;;;;;;;17.00;10.95;;;10.30;99.90;;;;;;5070414;28;20503;-80
2023/04/08 11:49:47;;;;;;;14.27;10.20;;;10.20;99.90;;;;;;5071560;28;20040;-77
2023/04/08 11:52:13;;;;;;;17.67;11.85;;;10.30;99.90;;;;;;5070344;28;20106;-88
2023/04/08 11:54:42;;;;;;;19.70;12.90;;;10.30;99.90;;;;;;5053255;28;20163;-85
2023/04/08 11:57:11;;;;;;;19.27;13.05;;;10.40;99.90;;;;;;5052786;28;20126;-79
2023/04/08 11:59:37;;;;;;;18.02;12.80;;;10.40;99.90;;;;;;5051964;28;20057;-80
2023/04/08 12:02:03;;;;;;;23.67;14.73;;;10.50;99.90;;;;;;5050574;28;20462;-75
2023/04/08 12:04:29;;;;;;;21.88;13.43;;;10.50;99.90;;;;;;5033601;28;20052;-75
2023/04/08 12:06:55;;;;;;;19.70;13.10;;;10.40;99.90;;;;;;5052040;28;20051;-73
2023/04/08 12:09:21;;;;;;;23.20;14.43;;;10.50;99.90;;;;;;5051779;28;20057;-74
2023/04/08 12:11:46;;;;;;;23.42;13.32;;;10.50;99.90;;;;;;5051965;28;20045;-73
2023/04/08 12:14:13;;;;;;;22.55;14.35;;;10.50;99.90;;;;;;5051725;28;20045;-78
2023/04/08 12:16:39;;;;;;;19.70;13.20;;;10.60;99.90;;;;;;5051674;28;20511;-72
2023/04/08 12:19:05;;;;;;;21.25;14.25;;;10.60;99.90;;;;;;5051416;28;20041;-73
2023/04/08 12:21:31;;;;;;;20.40;13.40;;;10.60;99.90;;;;;;5067653;28;20106;-75
2023/04/08 12:23:57;;;;;;;22.55;15.15;;;10.70;99.90;;;;;;5072080;28;20106;-73
2023/04/08 12:26:23;;;;;;;27.40;15.70;;;10.80;99.90;;;;;;5071828;28;20475;-74
2023/04/08 12:28:48;;;;;;;24.27;15.25;;;10.80;99.90;;;;;;5071439;28;20051;-72
2023/04/08 12:31:14;;;;;;;26.45;15.10;;;10.80;99.90;;;;;;5071389;28;20040;-73
2023/04/08 12:33:40;;;;;;;30.77;16.13;;;10.70;99.90;;;;;;5071338;28;20489;-73
2023/04/08 12:36:05;;;;;;;24.77;15.35;;;10.80;99.90;;;;;;5070838;28;20490;-72
2023/04/08 12:38:32;;;;;;;27.40;16.55;;;10.80;99.90;;;;;;5052916;28;20147;-73